Time;durP1;ratioP1;P1;durP2;ratioP2;P2;SDS_P1;SDS_P2;PMS_P1;PMS_P2;Temp;Humidity;BMP_temperature;BMP_pressure;BME280_temperature;BME280_humidity;BME280_pressure;Samples;Min_cycle;Max_cycle;Signal;HPM_P1;HPM_P2
2021/05/18 00:00:00;;;;;;;3.88;2.00;;;;;;;;;;5019881;28;20501;-42
2021/05/18 00:02:25;;;;;;;22.35;3.55;;;;;;;;;;5021559;28;20034;-43
2021/05/18 00:04:50;;;;;;;4.90;2.60;;;;;;;;;;5017461;28;20083;-43
2021/05/18 00:07:18;;;;;;;9.32;2.08;;;;;;;;;;5019533;28;20025;-43
2021/05/18 00:12:27;;;;;;;4.70;2.28;;;;;;;;;;5018535;28;20063;-41
2021/05/18 00:14:53;;;;;;;7.97;2.35;;;;;;;;;;5017627;28;20030;-44
2021/05/18 00:17:18;;;;;;;6.00;1.95;;;;;;;;;;5018032;28;20029;-42
2021/05/18 00:19:44;;;;;;;8.10;1.85;;;;;;;;;;5017076;28;20523;-46
2021/05/18 00:22:10;;;;;;;12.82;4.50;;;;;;;;;;5015661;28;20030;-43
2021/05/18 00:24:35;;;;;;;12.23;2.53;;;;;;;;;;5017215;28;20050;-41
2021/05/18 00:27:03;;;;;;;6.15;2.67;;;;;;;;;;5013103;28;20068;-41
2021/05/18 00:29:29;;;;;;;5.57;2.85;;;;;;;;;;5019771;28;20152;-41
2021/05/18 00:31:54;;;;;;;10.30;2.13;;;;;;;;;;5017342;28;20121;-42
2021/05/18 00:34:19;;;;;;;10.55;1.38;;;;;;;;;;5016644;28;20551;-42
2021/05/18 00:36:45;;;;;;;12.75;3.63;;;;;;;;;;5014845;28;20033;-41
2021/05/18 00:39:10;;;;;;;5.25;1.70;;;;;;;;;;5021986;28;20042;-45
2021/05/18 00:41:35;;;;;;;5.05;1.73;;;;;;;;;;5016919;28;20084;-47
2021/05/18 00:44:01;;;;;;;9.00;2.33;;;;;;;;;;5016048;28;20046;-45
2021/05/18 00:46:27;;;;;;;6.40;1.83;;;;;;;;;;5016128;28;20034;-46
2021/05/18 00:48:58;;;;;;;9.90;2.72;;;;;;;;;;5019091;28;20104;-48
2021/05/18 00:51:25;;;;;;;4.45;2.13;;;;;;;;;;5017375;28;20034;-45
2021/05/18 00:53:50;;;;;;;3.00;1.17;;;;;;;;;;5019587;28;20479;-43
2021/05/18 00:56:31;;;;;;;8.23;1.58;;;;;;;;;;5018041;28;20040;-46
2021/05/18 00:58:58;;;;;;;6.20;3.00;;;;;;;;;;5019007;28;20556;-46
2021/05/18 01:01:23;;;;;;;9.45;2.42;;;;;;;;;;5021290;28;20036;-47
2021/05/18 01:03:50;;;;;;;5.22;2.08;;;;;;;;;;5013617;28;20041;-42
2021/05/18 01:06:21;;;;;;;9.90;1.60;;;;;;;;;;5017844;28;20077;-42
2021/05/18 01:08:46;;;;;;;;;;;;;;;;;;5015213;28;20091;-45
2021/05/18 01:11:12;;;;;;;14.70;1.85;;;;;;;;;;5015826;28;19917;-46
2021/05/18 01:13:38;;;;;;;7.57;2.47;;;;;;;;;;5014789;28;20111;-46
2021/05/18 01:16:04;;;;;;;15.30;1.92;;;;;;;;;;5018801;28;20495;-41
2021/05/18 01:18:41;;;;;;;8.07;2.95;;;;;;;;;;5014989;28;20049;-42
2021/05/18 01:21:07;;;;;;;5.35;2.17;;;;;;;;;;5020635;28;20030;-43
2021/05/18 01:23:32;;;;;;;8.20;2.05;;;;;;;;;;5018191;28;20037;-42
2021/05/18 01:25:58;;;;;;;16.50;2.33;;;;;;;;;;5018541;28;20048;-44
2021/05/18 01:28:26;;;;;;;10.15;2.38;;;;;;;;;;5014853;28;20061;-44
2021/05/18 01:30:51;;;;;;;4.78;1.58;;;;;;;;;;5011937;28;20038;-43
2021/05/18 01:33:17;;;;;;;7.65;2.30;;;;;;;;;;5011411;28;20029;-41
2021/05/18 01:35:42;;;;;;;7.90;3.05;;;;;;;;;;5013776;28;20030;-42
2021/05/18 01:38:11;;;;;;;17.42;2.00;;;;;;;;;;5018960;28;20631;-45
2021/05/18 01:43:08;;;;;;;;;;;;;;;;;;5016595;28;20072;-44
2021/05/18 01:45:33;;;;;;;7.97;1.48;;;;;;;;;;5018668;28;19913;-45
2021/05/18 01:48:00;;;;;;;5.45;1.83;;;;;;;;;;5017239;28;20036;-45
2021/05/18 01:50:27;;;;;;;4.43;2.63;;;;;;;;;;5017067;28;20684;-42
2021/05/18 01:52:53;;;;;;;8.77;2.60;;;;;;;;;;5020108;28;20091;-46
2021/05/18 01:56:19;;;;;;;6.53;2.80;;;;;;;;;;5020794;28;20030;-42
2021/05/18 01:58:04;;;;;;;5.78;2.65;;;;;;;;;;5008426;28;20095;-42
2021/05/18 02:00:31;;;;;;;5.00;1.33;;;;;;;;;;5021616;28;20033;-44
2021/05/18 02:02:57;;;;;;;5.00;2.70;;;;;;;;;;5021429;28;20502;-41
2021/05/18 02:05:23;;;;;;;9.35;1.75;;;;;;;;;;5019206;28;20041;-42
2021/05/18 02:07:51;;;;;;;11.80;3.15;;;;;;;;;;5024253;28;20049;-43
2021/05/18 02:10:17;;;;;;;11.23;2.67;;;;;;;;;;5021970;28;20060;-43
2021/05/18 02:12:43;;;;;;;4.88;2.17;;;;;;;;;;5019232;28;20065;-42
2021/05/18 02:20:57;;;;;;;12.77;3.45;;;;;;;;;;5021813;28;20422;-42
2021/05/18 02:26:06;;;;;;;10.55;2.72;;;;;;;;;;5019267;28;20525;-42
2021/05/18 02:28:31;;;;;;;15.48;2.42;;;;;;;;;;5024033;28;20030;-41
2021/05/18 02:30:57;;;;;;;6.28;2.30;;;;;;;;;;5022773;28;20025;-42
2021/05/18 02:33:23;;;;;;;6.28;1.92;;;;;;;;;;5019735;28;20030;-43
2021/05/18 02:35:48;;;;;;;13.80;2.13;;;;;;;;;;5020175;28;20505;-42
2021/05/18 02:38:14;;;;;;;9.52;3.05;;;;;;;;;;5021512;28;20030;-43
2021/05/18 02:40:40;;;;;;;3.97;1.23;;;;;;;;;;5021486;28;20562;-42
2021/05/18 02:43:06;;;;;;;4.72;1.45;;;;;;;;;;5018667;28;20041;-43
2021/05/18 02:45:36;;;;;;;3.58;1.75;;;;;;;;;;5022224;28;20038;-43
2021/05/18 02:50:46;;;;;;;4.70;1.77;;;;;;;;;;5017211;28;20083;-41
2021/05/18 02:53:11;;;;;;;2.90;1.77;;;;;;;;;;5018799;28;20037;-42
2021/05/18 02:58:08;;;;;;;7.05;2.13;;;;;;;;;;5018261;28;20103;-42
2021/05/18 03:00:33;;;;;;;15.65;3.10;;;;;;;;;;5018418;28;20412;-42
2021/05/18 03:02:59;;;;;;;3.22;1.65;;;;;;;;;;5019199;28;20471;-43
2021/05/18 03:05:25;;;;;;;5.38;1.77;;;;;;;;;;5019124;28;20474;-43
2021/05/18 03:07:52;;;;;;;8.68;2.53;;;;;;;;;;5020337;28;20041;-42
2021/05/18 03:10:17;;;;;;;9.75;1.83;;;;;;;;;;5019462;28;20506;-41
2021/05/18 03:12:43;;;;;;;7.15;2.20;;;;;;;;;;5017323;28;20064;-43
2021/05/18 03:15:08;;;;;;;5.53;1.77;;;;;;;;;;5019364;28;20892;-41
2021/05/18 03:17:35;;;;;;;4.85;1.60;;;;;;;;;;5016264;28;20030;-44
2021/05/18 03:20:01;;;;;;;4.50;2.20;;;;;;;;;;5019003;28;20076;-46
2021/05/18 03:22:26;;;;;;;6.22;1.92;;;;;;;;;;5016852;28;20806;-42
2021/05/18 03:24:51;;;;;;;7.68;1.77;;;;;;;;;;5017326;28;20673;-43
2021/05/18 03:27:17;;;;;;;3.95;2.08;;;;;;;;;;5016145;28;20415;-43
2021/05/18 03:29:44;;;;;;;4.60;1.58;;;;;;;;;;5017545;28;20061;-42
2021/05/18 03:34:53;;;;;;;8.43;2.08;;;;;;;;;;5020252;28;20394;-43
2021/05/18 03:40:08;;;;;;;5.35;2.28;;;;;;;;;;5021240;28;20056;-42
2021/05/18 03:42:44;;;;;;;3.50;1.45;;;;;;;;;;5021887;28;20552;-43
2021/05/18 03:53:34;;;;;;;7.47;1.50;;;;;;;;;;5018005;28;20037;-42
2021/05/18 04:17:11;;;;;;;11.05;1.98;;;;;;;;;;5022134;28;20474;-42
2021/05/18 04:19:40;;;;;;;14.35;1.55;;;;;;;;;;5019501;28;20033;-48
2021/05/18 05:16:16;;;;;;;6.50;2.47;;;;;;;;;;5016473;28;20573;-39
2021/05/18 05:18:41;;;;;;;16.85;3.55;;;;;;;;;;5010669;28;20133;-39
2021/05/18 05:21:06;;;;;;;10.20;2.60;;;;;;;;;;5013867;28;20029;-39
2021/05/18 05:23:32;;;;;;;5.18;2.25;;;;;;;;;;5015403;28;20044;-38
2021/05/18 05:25:57;;;;;;;16.00;4.38;;;;;;;;;;5018184;28;20049;-38
2021/05/18 05:28:22;;;;;;;9.02;2.17;;;;;;;;;;5021753;28;20117;-38
2021/05/18 05:30:48;;;;;;;11.95;2.10;;;;;;;;;;5019972;28;20029;-39
2021/05/18 05:33:13;;;;;;;8.52;1.95;;;;;;;;;;5016661;28;20037;-39
2021/05/18 05:35:38;;;;;;;9.77;2.95;;;;;;;;;;5015676;28;20483;-39
2021/05/18 05:38:06;;;;;;;31.30;9.52;;;;;;;;;;5016581;28;20030;-39
2021/05/18 05:40:31;;;;;;;26.50;8.85;;;;;;;;;;5015161;28;20120;-39
2021/05/18 05:42:56;;;;;;;35.10;7.45;;;;;;;;;;5017628;28;20678;-38
2021/05/18 05:45:22;;;;;;;29.08;5.88;;;;;;;;;;5022631;28;20030;-39
2021/05/18 05:47:47;;;;;;;14.80;8.40;;;;;;;;;;5015468;28;20380;-39
2021/05/18 05:50:12;;;;;;;40.72;24.20;;;;;;;;;;5017355;28;20030;-38
2021/05/18 05:52:38;;;;;;;26.35;12.75;;;;;;;;;;5017846;28;20030;-38
2021/05/18 05:55:04;;;;;;;8.98;5.22;;;;;;;;;;5017575;28;20042;-39
2021/05/18 05:57:29;;;;;;;16.27;8.48;;;;;;;;;;5019856;28;20069;-38
2021/05/18 05:59:54;;;;;;;10.35;5.68;;;;;;;;;;5018522;28;20046;-38
2021/05/18 06:02:19;;;;;;;23.58;10.13;;;;;;;;;;5018630;28;20022;-39
2021/05/18 06:04:45;;;;;;;15.02;7.32;;;;;;;;;;5017997;28;20084;-38
2021/05/18 06:07:10;;;;;;;14.60;6.95;;;;;;;;;;5014066;28;20102;-38
2021/05/18 06:09:37;;;;;;;22.77;9.48;;;;;;;;;;5015856;28;20045;-38
2021/05/18 06:14:59;;;;;;;26.63;10.38;;;;;;;;;;5015559;28;20038;-39
2021/05/18 06:47:32;;;;;;;9.82;2.40;;;;;;;;;;5018248;28;20173;-39
2021/05/18 06:50:28;;;;;;;22.58;9.82;;;;;;;;;;5019050;28;20033;-39
2021/05/18 06:52:47;;;;;;;8.30;3.78;;;;;;;;;;5016590;28;20037;-39
2021/05/18 06:55:15;;;;;;;9.98;4.25;;;;;;;;;;5019380;28;20083;-39
2021/05/18 06:57:44;;;;;;;6.05;3.92;;;;;;;;;;5016671;28;20041;-39
2021/05/18 07:00:11;;;;;;;4.50;1.98;;;;;;;;;;5016198;28;20509;-39
2021/05/18 07:02:38;;;;;;;8.15;2.67;;;;;;;;;;5018160;28;20041;-37
2021/05/18 07:05:06;;;;;;;4.25;3.03;;;;;;;;;;5000753;28;20037;-37
2021/05/18 07:07:34;;;;;;;7.55;2.00;;;;;;;;;;5020860;28;20108;-35
2021/05/18 07:09:59;;;;;;;42.10;8.48;;;;;;;;;;5014154;28;20854;-36
2021/05/18 07:12:24;;;;;;;87.88;19.80;;;;;;;;;;5015570;28;20463;-36
2021/05/18 07:14:49;;;;;;;15.32;2.75;;;;;;;;;;5016939;28;20080;-41
2021/05/18 07:17:15;;;;;;;15.70;6.68;;;;;;;;;;5016097;28;20037;-40
2021/05/18 07:19:40;;;;;;;7.60;1.90;;;;;;;;;;5017599;28;20580;-37
2021/05/18 07:22:07;;;;;;;9.13;2.88;;;;;;;;;;5015994;28;20048;-40
2021/05/18 07:24:32;;;;;;;10.10;3.00;;;;;;;;;;5018230;28;20049;-39
2021/05/18 07:26:58;;;;;;;14.90;3.47;;;;;;;;;;5015059;28;20080;-39
2021/05/18 07:29:24;;;;;;;12.27;3.20;;;;;;;;;;5011559;28;20041;-39
2021/05/18 07:31:49;;;;;;;14.43;4.15;;;;;;;;;;5013342;28;20030;-38
2021/05/18 07:34:14;;;;;;;9.35;5.63;;;;;;;;;;5015679;28;20035;-39
2021/05/18 07:36:40;;;;;;;9.95;4.07;;;;;;;;;;5013943;28;20367;-39
2021/05/18 07:39:05;;;;;;;9.43;4.43;;;;;;;;;;5017107;28;20075;-40
2021/05/18 07:41:32;;;;;;;7.75;2.42;;;;;;;;;;5032647;28;20073;-39
2021/05/18 07:43:58;;;;;;;75.03;12.30;;;;;;;;;;5017640;28;20069;-39
2021/05/18 07:46:24;;;;;;;25.27;4.70;;;;;;;;;;5013331;28;20064;-39
2021/05/18 08:07:16;;;;;;;7.65;3.22;;;;;;;;;;5015431;28;20072;-39
2021/05/18 08:09:47;;;;;;;11.93;4.82;;;;;;;;;;5015388;28;20077;-40
2021/05/18 08:12:13;;;;;;;7.25;3.33;;;;;;;;;;5015824;28;20033;-38
2021/05/18 08:14:42;;;;;;;7.00;3.03;;;;;;;;;;5016313;28;20503;-39
2021/05/18 08:17:33;;;;;;;9.65;3.40;;;;;;;;;;5014646;28;20033;-46
2021/05/18 10:35:30;;;;;;;5.22;2.33;;;;;;;;;;5022752;28;20036;-38
2021/05/18 10:38:00;;;;;;;11.52;2.53;;;;;;;;;;5022429;28;20606;-39
2021/05/18 10:40:27;;;;;;;2.45;1.13;;;;;;;;;;5005575;28;20064;-40
2021/05/18 10:43:29;;;;;;;3.20;1.52;;;;;;;;;;5019002;28;20057;-41
2021/05/18 10:46:07;;;;;;;6.85;1.70;;;;;;;;;;5019536;28;20034;-42
2021/05/18 10:48:35;;;;;;;4.97;2.90;;;;;;;;;;5019600;28;20041;-39
2021/05/18 10:51:16;;;;;;;2.15;1.05;;;;;;;;;;5018317;28;20032;-39
2021/05/18 10:53:42;;;;;;;10.15;1.60;;;;;;;;;;5017247;28;20033;-39
2021/05/18 10:56:08;;;;;;;8.70;1.95;;;;;;;;;;5017851;28;20383;-40
2021/05/18 10:58:34;;;;;;;2.00;0.90;;;;;;;;;;5017822;28;20044;-38
2021/05/18 11:01:00;;;;;;;11.40;1.85;;;;;;;;;;5018836;28;20030;-38
2021/05/18 11:03:26;;;;;;;6.78;1.38;;;;;;;;;;5018205;28;20026;-38
2021/05/18 11:05:52;;;;;;;3.33;1.52;;;;;;;;;;5020454;28;20108;-38
2021/05/18 11:08:20;;;;;;;5.30;1.00;;;;;;;;;;5020434;28;20053;-39
2021/05/18 11:10:47;;;;;;;1.85;1.10;;;;;;;;;;5022450;28;20025;-41
2021/05/18 11:13:13;;;;;;;5.38;1.40;;;;;;;;;;5019867;28;20033;-38
2021/05/18 11:15:39;;;;;;;9.95;1.85;;;;;;;;;;5015765;28;20450;-38
2021/05/18 11:18:05;;;;;;;12.60;1.92;;;;;;;;;;5033866;28;20044;-39
2021/05/18 11:23:22;;;;;;;3.17;1.80;;;;;;;;;;5020086;28;20034;-38
2021/05/18 11:25:48;;;;;;;4.05;0.93;;;;;;;;;;5015189;28;20069;-38
2021/05/18 11:28:14;;;;;;;3.08;0.77;;;;;;;;;;5022578;28;20061;-39
2021/05/18 11:30:41;;;;;;;4.38;0.95;;;;;;;;;;5025774;28;20060;-38
2021/05/18 11:33:06;;;;;;;2.95;1.67;;;;;;;;;;4999178;28;20124;-48
2021/05/18 11:35:32;;;;;;;1.98;1.15;;;;;;;;;;5019250;28;20041;-51
2021/05/18 11:38:16;;;;;;;4.72;1.25;;;;;;;;;;5018154;28;20479;-50
2021/05/18 11:40:51;;;;;;;2.92;0.65;;;;;;;;;;5017496;28;20030;-50
2021/05/18 11:43:39;;;;;;;2.20;0.52;;;;;;;;;;5018873;28;20064;-51
2021/05/18 11:46:12;;;;;;;2.95;1.25;;;;;;;;;;5021479;28;20158;-46
2021/05/18 11:48:40;;;;;;;1.85;0.47;;;;;;;;;;5018631;28;20029;-53
2021/05/18 11:51:13;;;;;;;2.95;1.05;;;;;;;;;;5001938;28;20045;-50
2021/05/18 11:53:40;;;;;;;1.63;0.73;;;;;;;;;;5014180;28;20065;-49
2021/05/18 11:56:20;;;;;;;4.60;1.60;;;;;;;;;;5013899;28;20034;-52
2021/05/18 11:58:45;;;;;;;3.28;1.38;;;;;;;;;;5017841;28;20029;-48
2021/05/18 12:01:11;;;;;;;4.82;0.63;;;;;;;;;;5017112;28;20029;-46
2021/05/18 12:03:37;;;;;;;2.22;0.63;;;;;;;;;;5012057;28;20049;-47
2021/05/18 12:06:04;;;;;;;3.55;1.83;;;;;;;;;;5017763;28;20069;-49
2021/05/18 12:08:29;;;;;;;1.30;0.60;;;;;;;;;;5016809;28;20026;-48
2021/05/18 12:10:55;;;;;;;2.47;0.65;;;;;;;;;;5016143;28;20581;-49
2021/05/18 12:13:32;;;;;;;1.98;0.80;;;;;;;;;;5017539;28;20030;-49
2021/05/18 12:16:01;;;;;;;4.53;1.42;;;;;;;;;;5017324;28;20029;-48
2021/05/18 12:18:34;;;;;;;6.38;1.38;;;;;;;;;;5018514;28;20107;-46
2021/05/18 12:21:07;;;;;;;4.13;1.52;;;;;;;;;;5016524;28;20033;-51
2021/05/18 12:23:33;;;;;;;2.00;0.85;;;;;;;;;;5014113;28;20815;-47
2021/05/18 12:26:15;;;;;;;4.18;0.77;;;;;;;;;;5016632;28;20056;-47
2021/05/18 12:28:54;;;;;;;3.63;1.45;;;;;;;;;;5014809;28;20151;-46
2021/05/18 12:31:26;;;;;;;6.07;1.00;;;;;;;;;;5017825;28;20033;-47
2021/05/18 12:33:51;;;;;;;8.07;1.50;;;;;;;;;;5016985;28;20042;-50
2021/05/18 12:36:16;;;;;;;5.10;1.00;;;;;;;;;;5021068;28;20089;-45
2021/05/18 12:38:42;;;;;;;6.75;1.65;;;;;;;;;;5012878;28;20033;-47
2021/05/18 12:41:07;;;;;;;1.77;0.77;;;;;;;;;;5019802;28;20092;-49
2021/05/18 12:43:40;;;;;;;2.17;0.88;;;;;;;;;;5016038;28;20048;-48
2021/05/18 12:46:12;;;;;;;10.27;1.75;;;;;;;;;;5017296;28;20049;-49
2021/05/18 12:48:38;;;;;;;2.97;1.10;;;;;;;;;;5018865;28;20029;-44
2021/05/18 12:51:17;;;;;;;2.13;0.88;;;;;;;;;;5017338;28;20467;-45
2021/05/18 12:53:42;;;;;;;2.97;1.10;;;;;;;;;;5012348;28;20099;-46
2021/05/18 12:56:12;;;;;;;4.55;1.52;;;;;;;;;;5018378;28;20033;-44
2021/05/18 12:58:37;;;;;;;1.90;1.13;;;;;;;;;;5017306;28;20108;-47
2021/05/18 13:01:12;;;;;;;3.03;1.50;;;;;;;;;;5020035;28;20121;-44
2021/05/18 13:03:38;;;;;;;3.42;1.15;;;;;;;;;;5016789;28;20034;-45
2021/05/18 13:06:04;;;;;;;4.78;0.85;;;;;;;;;;5017228;28;20068;-43
2021/05/18 13:08:30;;;;;;;3.13;1.48;;;;;;;;;;5014207;28;20126;-44
2021/05/18 13:13:49;;;;;;;1.73;1.05;;;;;;;;;;5013809;28;20037;-41
2021/05/18 13:16:17;;;;;;;9.35;2.08;;;;;;;;;;5014308;28;20037;-42
2021/05/18 13:19:00;;;;;;;1.90;0.57;;;;;;;;;;5014250;28;20057;-47
2021/05/18 13:21:35;;;;;;;4.88;1.20;;;;;;;;;;5016075;28;20034;-50
2021/05/18 13:26:31;;;;;;;2.28;0.85;;;;;;;;;;5015736;28;20064;-47
2021/05/18 13:29:01;;;;;;;1.17;0.73;;;;;;;;;;5013743;28;20041;-50
2021/05/18 13:31:27;;;;;;;2.70;1.70;;;;;;;;;;5012942;28;20030;-49
2021/05/18 13:33:52;;;;;;;6.38;1.38;;;;;;;;;;5016511;28;20033;-45
2021/05/18 13:36:18;;;;;;;15.38;1.45;;;;;;;;;;5016772;28;20056;-48
2021/05/18 13:38:43;;;;;;;1.85;0.57;;;;;;;;;;5018536;28;20533;-43
2021/05/18 13:41:08;;;;;;;5.15;1.23;;;;;;;;;;5017586;28;20026;-43
2021/05/18 13:43:34;;;;;;;2.97;0.70;;;;;;;;;;5016711;28;20416;-42
2021/05/18 13:45:59;;;;;;;4.15;1.20;;;;;;;;;;5014600;28;20037;-41
2021/05/18 13:48:25;;;;;;;5.82;1.23;;;;;;;;;;5021863;28;20402;-44
2021/05/18 13:50:50;;;;;;;2.28;1.15;;;;;;;;;;5017766;28;20445;-42
2021/05/18 13:53:18;;;;;;;8.88;1.85;;;;;;;;;;5018040;28;20029;-49
2021/05/18 13:55:43;;;;;;;3.83;1.02;;;;;;;;;;5021526;28;20040;-48
2021/05/18 13:58:08;;;;;;;3.58;1.00;;;;;;;;;;5016887;28;20061;-50
2021/05/18 14:00:34;;;;;;;6.65;1.27;;;;;;;;;;5018267;28;20120;-45
2021/05/18 14:02:59;;;;;;;5.30;1.50;;;;;;;;;;5019446;28;20409;-47
2021/05/18 14:05:26;;;;;;;0.50;0.38;;;;;;;;;;5021109;28;20036;-49
2021/05/18 14:10:31;;;;;;;2.10;0.60;;;;;;;;;;5019742;28;20125;-45
2021/05/18 14:12:56;;;;;;;7.95;1.27;;;;;;;;;;5021046;28;20116;-48
2021/05/18 14:15:22;;;;;;;10.73;1.58;;;;;;;;;;5020699;28;20451;-48
2021/05/18 14:17:47;;;;;;;3.33;1.60;;;;;;;;;;5021978;28;20041;-47
2021/05/18 14:20:13;;;;;;;3.80;0.98;;;;;;;;;;5019377;28;20037;-49
2021/05/18 14:22:38;;;;;;;1.35;0.60;;;;;;;;;;5017549;28;20034;-48
2021/05/18 14:25:05;;;;;;;3.90;1.23;;;;;;;;;;5020617;28;20068;-46
2021/05/18 14:27:31;;;;;;;2.45;0.93;;;;;;;;;;5021538;28;20034;-48
2021/05/18 14:29:56;;;;;;;3.42;0.80;;;;;;;;;;5021332;28;20083;-48
2021/05/18 14:32:22;;;;;;;8.70;2.22;;;;;;;;;;5020867;28;20022;-48
2021/05/18 14:34:47;;;;;;;4.07;0.85;;;;;;;;;;5020654;28;20104;-49
2021/05/18 14:37:12;;;;;;;5.03;1.52;;;;;;;;;;5018406;28;20069;-45
2021/05/18 14:45:03;;;;;;;5.60;1.35;;;;;;;;;;5017756;28;20493;-48
2021/05/18 14:47:36;;;;;;;4.10;1.70;;;;;;;;;;5019758;28;20029;-46
2021/05/18 14:55:31;;;;;;;2.38;1.08;;;;;;;;;;5018212;28;20092;-46
2021/05/18 14:57:57;;;;;;;2.28;1.60;;;;;;;;;;5019609;28;20037;-48
2021/05/18 15:00:22;;;;;;;7.07;1.77;;;;;;;;;;5018077;28;20389;-48
2021/05/18 15:02:48;;;;;;;3.60;1.05;;;;;;;;;;5020400;28;20038;-47
2021/05/18 15:05:14;;;;;;;1.48;1.10;;;;;;;;;;5019551;28;20475;-46
2021/05/18 15:07:43;;;;;;;4.07;1.23;;;;;;;;;;5017268;28;20030;-48
2021/05/18 15:10:09;;;;;;;5.07;2.08;;;;;;;;;;5016546;28;20035;-49
2021/05/18 15:12:34;;;;;;;5.18;1.67;;;;;;;;;;5020465;28;20104;-48
2021/05/18 15:14:59;;;;;;;3.92;1.60;;;;;;;;;;5006120;28;20530;-50
2021/05/18 15:17:25;;;;;;;4.05;1.27;;;;;;;;;;5016988;28;20128;-47
2021/05/18 15:19:52;;;;;;;3.67;1.25;;;;;;;;;;5019443;28;20109;-46
2021/05/18 15:22:18;;;;;;;3.08;1.35;;;;;;;;;;5019985;28;20083;-49
2021/05/18 15:24:43;;;;;;;1.98;1.35;;;;;;;;;;5018005;28;20049;-48
2021/05/18 15:27:10;;;;;;;4.82;1.77;;;;;;;;;;5021060;28;20410;-48
2021/05/18 15:29:35;;;;;;;5.10;1.70;;;;;;;;;;5035087;28;20033;-47
2021/05/18 15:32:01;;;;;;;5.13;2.22;;;;;;;;;;5022563;28;20037;-49
2021/05/18 15:34:27;;;;;;;3.60;1.98;;;;;;;;;;5021905;28;20087;-49
2021/05/18 15:36:52;;;;;;;5.88;1.55;;;;;;;;;;5019332;28;20041;-50
2021/05/18 15:39:17;;;;;;;9.23;0.80;;;;;;;;;;5019708;28;20038;-46
2021/05/18 15:41:43;;;;;;;9.57;2.28;;;;;;;;;;5015423;28;20041;-46
2021/05/18 15:44:09;;;;;;;2.85;1.20;;;;;;;;;;5020521;28;20033;-48
2021/05/18 15:46:34;;;;;;;17.23;2.38;;;;;;;;;;5017560;28;20411;-46
2021/05/18 15:48:59;;;;;;;2.63;0.88;;;;;;;;;;5016894;28;20029;-46
2021/05/18 15:51:25;;;;;;;3.15;1.45;;;;;;;;;;5020745;28;20034;-47
2021/05/18 15:53:50;;;;;;;4.97;1.70;;;;;;;;;;5020539;28;20025;-46
2021/05/18 15:56:15;;;;;;;7.57;2.13;;;;;;;;;;5018765;28;20502;-48
2021/05/18 15:58:41;;;;;;;2.42;0.95;;;;;;;;;;5020168;28;20033;-48
2021/05/18 16:01:06;;;;;;;2.17;1.27;;;;;;;;;;5018244;28;20038;-47
2021/05/18 16:03:31;;;;;;;6.57;1.55;;;;;;;;;;5016379;28;20025;-49
2021/05/18 16:06:00;;;;;;;7.00;1.60;;;;;;;;;;5019314;28;20038;-50
2021/05/18 16:10:58;;;;;;;3.67;0.88;;;;;;;;;;5016508;28;20037;-49
2021/05/18 16:13:23;;;;;;;4.22;1.60;;;;;;;;;;5018312;28;20122;-47
2021/05/18 16:15:49;;;;;;;5.30;1.42;;;;;;;;;;5003438;28;20478;-46
2021/05/18 16:18:14;;;;;;;6.75;1.08;;;;;;;;;;5018259;28;20029;-49
2021/05/18 16:20:41;;;;;;;3.53;0.57;;;;;;;;;;5019423;28;20068;-45
2021/05/18 16:23:06;;;;;;;1.15;0.60;;;;;;;;;;5017391;28;20120;-50
2021/05/18 16:25:31;;;;;;;7.68;1.33;;;;;;;;;;5015804;28;20802;-49
2021/05/18 16:27:57;;;;;;;1.75;0.85;;;;;;;;;;5016097;28;20053;-49
2021/05/18 16:30:23;;;;;;;9.02;1.38;;;;;;;;;;5017733;28;20438;-50
2021/05/18 16:32:48;;;;;;;5.18;1.58;;;;;;;;;;5016070;28;20026;-48
2021/05/18 16:35:13;;;;;;;1.33;0.68;;;;;;;;;;5017416;28;20072;-50
2021/05/18 16:37:39;;;;;;;5.07;1.10;;;;;;;;;;5020691;28;20035;-47
2021/05/18 16:40:05;;;;;;;4.13;0.88;;;;;;;;;;5020079;28;20644;-47
2021/05/18 16:42:32;;;;;;;4.15;1.38;;;;;;;;;;5018095;28;20084;-48
2021/05/18 16:44:57;;;;;;;3.33;1.60;;;;;;;;;;5017852;28;20034;-50
2021/05/18 16:47:22;;;;;;;20.35;2.67;;;;;;;;;;5015726;28;20033;-51
2021/05/18 16:49:47;;;;;;;3.65;1.38;;;;;;;;;;5019038;28;20080;-45
2021/05/18 16:52:13;;;;;;;3.70;1.52;;;;;;;;;;5016943;28;20517;-50
2021/05/18 16:54:38;;;;;;;5.60;1.63;;;;;;;;;;5018721;28;20406;-48
2021/05/18 16:57:04;;;;;;;2.15;1.25;;;;;;;;;;5021082;28;20034;-51
2021/05/18 16:59:29;;;;;;;3.13;1.13;;;;;;;;;;5015970;28;20109;-47
2021/05/18 17:01:55;;;;;;;3.72;1.90;;;;;;;;;;5018525;28;20641;-47
2021/05/18 17:04:20;;;;;;;4.03;1.23;;;;;;;;;;5015987;28;20034;-48
2021/05/18 17:06:46;;;;;;;30.25;4.32;;;;;;;;;;5018538;28;20081;-50
2021/05/18 17:09:12;;;;;;;6.07;1.20;;;;;;;;;;5016401;28;20034;-44
2021/05/18 17:11:40;;;;;;;1.65;0.73;;;;;;;;;;5017629;28;20053;-51
2021/05/18 17:14:05;;;;;;;4.75;0.93;;;;;;;;;;5019188;28;20029;-50
2021/05/18 17:16:30;;;;;;;3.85;1.70;;;;;;;;;;5015699;28;20837;-46
2021/05/18 17:18:56;;;;;;;11.27;2.55;;;;;;;;;;5014595;28;20545;-51
2021/05/18 17:21:21;;;;;;;7.82;1.85;;;;;;;;;;5016524;28;20045;-48
2021/05/18 17:23:46;;;;;;;8.43;2.17;;;;;;;;;;5022861;28;20041;-51
2021/05/18 17:26:13;;;;;;;9.10;1.50;;;;;;;;;;5023562;28;20072;-46
2021/05/18 17:28:40;;;;;;;3.33;1.92;;;;;;;;;;5023527;28;20083;-52
2021/05/18 17:31:08;;;;;;;10.75;1.58;;;;;;;;;;5022063;28;20430;-46
2021/05/18 17:33:33;;;;;;;8.57;1.85;;;;;;;;;;5019976;28;20407;-48
2021/05/18 17:35:59;;;;;;;4.82;2.30;;;;;;;;;;5022354;28;20138;-49
2021/05/18 17:38:25;;;;;;;4.03;1.08;;;;;;;;;;5024174;28;20049;-47
2021/05/18 17:40:50;;;;;;;2.15;1.00;;;;;;;;;;5020672;28;20034;-51
2021/05/18 17:43:17;;;;;;;4.53;2.05;;;;;;;;;;5024077;28;20427;-51
2021/05/18 17:45:43;;;;;;;9.57;1.65;;;;;;;;;;5023465;28;20103;-46
2021/05/18 17:48:08;;;;;;;9.15;1.35;;;;;;;;;;5022623;28;20479;-51
2021/05/18 17:50:34;;;;;;;2.40;1.23;;;;;;;;;;5017905;28;20552;-52
2021/05/18 17:52:59;;;;;;;3.65;1.35;;;;;;;;;;5019358;28;20041;-46
2021/05/18 17:55:25;;;;;;;4.28;1.45;;;;;;;;;;5022588;28;20903;-49
2021/05/18 17:57:50;;;;;;;3.42;1.27;;;;;;;;;;5018937;28;20033;-46
2021/05/18 18:00:15;;;;;;;2.75;1.10;;;;;;;;;;5021951;28;20463;-47
2021/05/18 18:02:41;;;;;;;2.70;1.67;;;;;;;;;;5018709;28;20502;-48
2021/05/18 18:05:07;;;;;;;6.60;1.42;;;;;;;;;;5016677;28;20145;-46
2021/05/18 18:07:32;;;;;;;2.13;1.13;;;;;;;;;;5022614;28;20115;-50
2021/05/18 18:10:00;;;;;;;2.45;0.88;;;;;;;;;;5021045;28;20514;-46
2021/05/18 18:12:25;;;;;;;2.40;1.00;;;;;;;;;;5021458;28;20037;-45
2021/05/18 18:14:50;;;;;;;5.35;1.85;;;;;;;;;;5023512;28;20364;-49
2021/05/18 18:17:19;;;;;;;3.00;1.30;;;;;;;;;;5017248;28;20144;-51
2021/05/18 18:19:44;;;;;;;4.13;1.20;;;;;;;;;;5016332;28;20038;-48
2021/05/18 18:22:10;;;;;;;11.50;1.10;;;;;;;;;;5019293;28;20041;-46
2021/05/18 18:24:37;;;;;;;12.27;2.17;;;;;;;;;;5021730;28;20053;-46
2021/05/18 18:27:06;;;;;;;2.65;1.27;;;;;;;;;;5019089;28;20033;-49
2021/05/18 18:29:31;;;;;;;6.75;1.45;;;;;;;;;;5017075;28;20101;-49
2021/05/18 18:31:56;;;;;;;7.45;2.92;;;;;;;;;;5018844;28;20464;-48
2021/05/18 18:34:22;;;;;;;18.85;2.38;;;;;;;;;;5020787;28;20044;-49
2021/05/18 18:36:48;;;;;;;2.63;1.35;;;;;;;;;;5015399;28;20034;-47
2021/05/18 18:39:14;;;;;;;11.82;2.05;;;;;;;;;;5018931;28;20053;-49
2021/05/18 18:41:40;;;;;;;6.13;0.98;;;;;;;;;;5016894;28;20184;-51
2021/05/18 18:44:05;;;;;;;3.85;1.27;;;;;;;;;;5017340;28;20063;-51
2021/05/18 18:46:30;;;;;;;1.50;0.60;;;;;;;;;;5017184;28;20467;-52
2021/05/18 18:48:56;;;;;;;2.85;1.08;;;;;;;;;;5021541;28;20030;-44
2021/05/18 18:51:25;;;;;;;9.95;1.67;;;;;;;;;;5018155;28;20055;-44
2021/05/18 18:53:50;;;;;;;7.70;1.55;;;;;;;;;;5019790;28;20506;-44
2021/05/18 18:56:16;;;;;;;4.22;1.48;;;;;;;;;;5022010;28;20029;-45
2021/05/18 18:58:42;;;;;;;2.13;1.02;;;;;;;;;;5015418;28;20061;-42
2021/05/18 19:01:08;;;;;;;9.27;1.17;;;;;;;;;;5018984;28;20073;-43
2021/05/18 19:03:37;;;;;;;5.45;1.05;;;;;;;;;;5018543;28;20438;-44
2021/05/18 19:13:23;;;;;;;9.55;2.58;;;;;;;;;;5020480;28;20030;-43
2021/05/18 19:15:48;;;;;;;10.07;1.52;;;;;;;;;;5016786;28;20034;-44
2021/05/18 19:18:14;;;;;;;2.65;0.93;;;;;;;;;;5017871;28;20109;-44
2021/05/18 19:20:39;;;;;;;2.75;1.05;;;;;;;;;;5034902;28;20501;-45
2021/05/18 19:23:05;;;;;;;7.78;1.75;;;;;;;;;;5018356;28;20458;-43
2021/05/18 19:25:32;;;;;;;16.23;1.33;;;;;;;;;;5016101;28;20054;-45
2021/05/18 19:28:04;;;;;;;7.88;1.20;;;;;;;;;;5016499;28;20532;-44
2021/05/18 19:30:30;;;;;;;1.98;1.02;;;;;;;;;;5018373;28;20109;-43
2021/05/18 19:32:55;;;;;;;3.78;1.38;;;;;;;;;;5015540;28;20113;-43
2021/05/18 19:35:32;;;;;;;5.97;1.90;;;;;;;;;;5017256;28;20075;-44
2021/05/18 19:48:27;;;;;;;1.85;0.77;;;;;;;;;;5015146;28;20030;-44
2021/05/18 19:50:53;;;;;;;1.98;1.00;;;;;;;;;;5019880;28;20034;-44
2021/05/18 19:53:51;;;;;;;5.72;1.00;;;;;;;;;;5015565;28;20033;-48
2021/05/18 19:56:22;;;;;;;8.35;1.58;;;;;;;;;;5015430;28;20026;-42
2021/05/18 20:10:13;;;;;;;3.85;1.35;;;;;;;;;;5016931;28;20049;-43
2021/05/18 20:20:24;;;;;;;6.00;1.75;;;;;;;;;;5021233;28;20049;-46
2021/05/18 20:22:50;;;;;;;2.65;1.48;;;;;;;;;;5022666;28;20048;-43
2021/05/18 20:25:15;;;;;;;3.55;1.75;;;;;;;;;;5022981;28;20045;-48
2021/05/18 20:27:40;;;;;;;7.15;1.92;;;;;;;;;;5018752;28;20058;-50
2021/05/18 20:30:07;;;;;;;8.70;1.58;;;;;;;;;;5012277;28;20248;-43
2021/05/18 20:32:33;;;;;;;10.50;1.42;;;;;;;;;;5013497;28;20029;-44
2021/05/18 20:35:36;;;;;;;1.65;0.82;;;;;;;;;;5014122;28;20581;-49